createdAt,value
2023-06-28T00:01:15.042Z,11.02
2023-06-28T00:04:01.578Z,11.00
2023-06-28T00:06:28.598Z,11.01
2023-06-28T00:08:55.199Z,11.01
2023-06-28T00:11:21.792Z,11.00
2023-06-28T00:13:48.444Z,10.96
2023-06-28T00:16:15.511Z,10.97
2023-06-28T00:18:43.795Z,10.97
2023-06-28T00:21:13.933Z,10.95
2023-06-28T00:23:41.551Z,10.90
2023-06-28T00:26:08.190Z,10.86
2023-06-28T00:28:34.892Z,10.84
2023-06-28T00:31:02.012Z,10.82
2023-06-28T00:33:28.708Z,10.79
2023-06-28T00:35:55.294Z,10.78
2023-06-28T00:38:21.911Z,10.73
2023-06-28T00:40:48.897Z,10.69
2023-06-28T00:43:15.489Z,10.68
2023-06-28T00:45:43.200Z,10.70
2023-06-28T00:48:10.435Z,10.71
2023-06-28T00:50:37.980Z,10.69
2023-06-28T00:53:05.455Z,10.68
2023-06-28T00:55:32.082Z,10.70
2023-06-28T00:57:58.947Z,10.69
2023-06-28T01:00:27.075Z,10.69
2023-06-28T01:02:53.893Z,10.69
2023-06-28T01:05:20.994Z,10.66
2023-06-28T01:07:52.407Z,10.64
2023-06-28T01:10:20.346Z,10.66
2023-06-28T01:12:48.151Z,10.66
2023-06-28T01:15:15.232Z,10.67
2023-06-28T01:17:42.187Z,10.64
2023-06-28T01:20:09.551Z,10.60
2023-06-28T01:22:41.018Z,10.54
2023-06-28T01:25:10.551Z,10.50
2023-06-28T01:27:40.764Z,10.44
2023-06-28T01:30:11.558Z,10.35
2023-06-28T01:32:38.247Z,10.30
2023-06-28T01:35:05.993Z,10.36
2023-06-28T01:37:33.168Z,10.41
2023-06-28T01:40:01.050Z,10.49
2023-06-28T01:42:28.184Z,10.54
2023-06-28T01:44:54.851Z,10.61
2023-06-28T01:47:21.560Z,10.62
2023-06-28T01:49:48.544Z,10.60
2023-06-28T01:52:15.900Z,10.63
2023-06-28T01:54:42.499Z,10.65
2023-06-28T01:57:09.043Z,10.70
2023-06-28T01:59:36.433Z,10.67
2023-06-28T02:02:03.818Z,10.63
2023-06-28T02:04:32.750Z,10.53
2023-06-28T02:07:00.117Z,10.34
2023-06-28T02:09:26.790Z,10.13
2023-06-28T02:11:53.369Z,10.01
2023-06-28T02:14:19.918Z,9.98
2023-06-28T02:16:46.544Z,10.00
2023-06-28T02:19:16.960Z,9.95
2023-06-28T02:21:44.571Z,10.04
2023-06-28T02:24:11.140Z,10.11
2023-06-28T02:26:39.379Z,10.21
2023-06-28T02:29:06.055Z,10.16
2023-06-28T02:31:32.696Z,10.03
2023-06-28T02:33:59.385Z,10.07
2023-06-28T02:36:25.950Z,10.13
2023-06-28T02:38:52.893Z,10.24
2023-06-28T02:41:19.488Z,10.26
2023-06-28T02:43:46.105Z,10.15
2023-06-28T02:46:13.203Z,10.02
2023-06-28T02:48:40.001Z,9.94
2023-06-28T02:51:06.625Z,9.85
2023-06-28T02:53:33.310Z,9.75
2023-06-28T02:55:59.969Z,9.68
2023-06-28T02:58:55.518Z,9.72
2023-06-28T03:01:22.460Z,9.69
2023-06-28T03:03:49.242Z,9.62
2023-06-28T03:06:16.033Z,9.62
2023-06-28T03:08:42.660Z,9.55
2023-06-28T03:11:09.277Z,9.54
2023-06-28T03:13:35.892Z,9.60
2023-06-28T03:16:02.516Z,9.62
2023-06-28T03:18:29.540Z,9.67
2023-06-28T03:20:56.838Z,9.71
2023-06-28T03:23:23.391Z,9.73
2023-06-28T03:25:50.291Z,9.78
2023-06-28T03:28:17.056Z,9.83
2023-06-28T03:30:43.834Z,9.88
2023-06-28T03:33:10.764Z,9.91
2023-06-28T03:35:37.387Z,9.93
2023-06-28T03:38:04.102Z,9.96
2023-06-28T03:40:30.758Z,9.99
2023-06-28T03:42:57.445Z,10.04
2023-06-28T03:45:24.074Z,10.10
2023-06-28T03:47:50.745Z,10.16
2023-06-28T03:50:17.480Z,10.23
2023-06-28T03:52:44.053Z,10.31
2023-06-28T03:55:12.638Z,10.41
2023-06-28T03:57:40.690Z,10.52
2023-06-28T04:00:10.741Z,10.61
2023-06-28T04:02:41.455Z,10.67
2023-06-28T04:05:08.961Z,10.75
2023-06-28T04:07:35.707Z,10.86
2023-06-28T04:10:03.850Z,10.99
2023-06-28T04:12:30.514Z,11.09
2023-06-28T04:14:57.128Z,11.19
2023-06-28T04:17:23.770Z,11.27
2023-06-28T04:19:50.467Z,11.35
2023-06-28T04:22:17.201Z,11.46
2023-06-28T04:24:43.828Z,11.55
2023-06-28T04:27:10.441Z,11.64
2023-06-28T04:29:36.989Z,11.70
2023-06-28T04:32:19.819Z,11.79
2023-06-28T04:34:46.671Z,11.91
2023-06-28T04:37:16.068Z,12.00
2023-06-28T04:39:44.445Z,12.10
2023-06-28T04:42:14.971Z,12.17
2023-06-28T04:44:47.585Z,12.24
2023-06-28T04:47:17.885Z,12.28
2023-06-28T04:49:49.478Z,12.36
2023-06-28T04:52:19.450Z,12.46
2023-06-28T04:54:46.801Z,12.56
2023-06-28T04:57:14.848Z,12.64
2023-06-28T04:59:42.213Z,12.71
2023-06-28T05:02:09.879Z,12.84
2023-06-28T05:04:40.427Z,12.97
2023-06-28T05:07:09.714Z,13.04
2023-06-28T05:09:38.225Z,13.14
2023-06-28T05:12:05.761Z,13.19
2023-06-28T05:14:32.563Z,13.24
2023-06-28T05:16:59.273Z,13.30
2023-06-28T05:19:26.370Z,13.38
2023-06-28T05:21:54.575Z,13.43
2023-06-28T05:24:21.685Z,13.55
2023-06-28T05:26:48.378Z,13.62
2023-06-28T05:29:14.971Z,13.70
2023-06-28T05:31:42.864Z,13.79
2023-06-28T05:34:11.633Z,13.85
2023-06-28T05:36:38.328Z,13.86
2023-06-28T05:39:04.981Z,13.91
2023-06-28T05:41:31.577Z,14.00
2023-06-28T05:43:58.161Z,14.12
2023-06-28T05:46:24.688Z,14.25
2023-06-28T05:48:51.465Z,14.30
2023-06-28T05:51:18.146Z,14.37
2023-06-28T05:53:44.926Z,14.42
2023-06-28T05:56:11.619Z,14.45
2023-06-28T05:58:38.300Z,14.43
2023-06-28T06:01:04.869Z,14.49
2023-06-28T06:03:31.606Z,14.57
2023-06-28T06:05:58.633Z,14.63
2023-06-28T06:08:25.232Z,14.59
2023-06-28T06:10:51.808Z,14.49
2023-06-28T06:13:38.927Z,14.47
2023-06-28T06:16:05.553Z,14.46
2023-06-28T06:18:32.180Z,14.50
2023-06-28T06:20:58.975Z,14.53
2023-06-28T06:23:25.713Z,14.56
2023-06-28T06:25:52.837Z,14.60
2023-06-28T06:28:19.427Z,14.72
2023-06-28T06:30:46.457Z,14.82
2023-06-28T06:33:13.587Z,14.88
2023-06-28T06:35:40.240Z,14.88
2023-06-28T06:38:06.806Z,14.92
2023-06-28T06:40:34.297Z,14.90
2023-06-28T06:43:00.839Z,14.88
2023-06-28T06:45:27.411Z,14.92
2023-06-28T06:47:54.142Z,14.94
2023-06-28T06:50:20.839Z,15.05
2023-06-28T06:52:47.459Z,15.14
2023-06-28T06:55:14.221Z,15.26
2023-06-28T06:57:40.921Z,15.46
2023-06-28T07:00:09.424Z,15.56
2023-06-28T07:02:36.411Z,15.54
2023-06-28T07:05:03.178Z,15.54
2023-06-28T07:07:29.849Z,15.48
2023-06-28T07:09:56.438Z,15.57
2023-06-28T07:12:23.073Z,15.64
2023-06-28T07:14:50.064Z,15.72
2023-06-28T07:17:17.119Z,15.85
2023-06-28T07:19:43.748Z,15.98
2023-06-28T07:22:10.410Z,16.15
2023-06-28T07:24:37.079Z,16.35
2023-06-28T07:27:04.052Z,16.43
2023-06-28T07:29:33.142Z,16.39
2023-06-28T07:31:59.788Z,16.31
2023-06-28T07:34:26.435Z,16.31
2023-06-28T07:36:53.042Z,16.22
2023-06-28T07:39:19.710Z,16.27
2023-06-28T07:41:46.284Z,16.37
2023-06-28T07:44:12.835Z,16.54
2023-06-28T07:46:39.516Z,16.71
2023-06-28T07:49:06.099Z,16.72
2023-06-28T07:51:32.678Z,16.74
2023-06-28T07:53:59.351Z,16.82
2023-06-28T07:56:25.924Z,16.80
2023-06-28T07:58:52.612Z,16.83
2023-06-28T08:01:19.203Z,16.82
2023-06-28T08:03:45.996Z,16.78
2023-06-28T08:06:12.681Z,16.72
2023-06-28T08:08:39.405Z,16.78
2023-06-28T08:11:06.244Z,16.91
2023-06-28T08:13:33.162Z,17.03
2023-06-28T08:15:59.929Z,17.29
2023-06-28T08:18:27.066Z,17.50
2023-06-28T08:20:53.892Z,17.65
2023-06-28T08:23:21.866Z,17.61
2023-06-28T08:25:48.507Z,17.54
2023-06-28T08:28:15.182Z,17.35
2023-06-28T08:30:41.823Z,17.27
2023-06-28T08:33:08.600Z,17.42
2023-06-28T08:35:35.305Z,17.45
2023-06-28T08:38:02.420Z,17.33
2023-06-28T08:40:30.471Z,17.18
2023-06-28T08:43:01.012Z,17.23
2023-06-28T08:45:31.116Z,17.35
2023-06-28T08:47:59.093Z,17.52
2023-06-28T08:50:26.524Z,17.64
2023-06-28T08:52:53.912Z,17.83
2023-06-28T08:55:21.976Z,17.87
2023-06-28T08:57:48.628Z,17.89
2023-06-28T09:00:15.636Z,17.97
2023-06-28T09:02:45.983Z,17.99
2023-06-28T09:05:13.144Z,17.86
2023-06-28T09:07:41.311Z,18.00
2023-06-28T09:10:11.305Z,18.15
2023-06-28T09:12:39.517Z,18.33
2023-06-28T09:15:07.139Z,18.30
2023-06-28T09:17:33.999Z,18.12
2023-06-28T09:20:08.293Z,17.89
2023-06-28T09:22:34.889Z,17.77
2023-06-28T09:25:05.876Z,17.59
2023-06-28T09:27:32.441Z,17.42
2023-06-28T09:30:21.878Z,17.34
2023-06-28T09:32:52.615Z,17.34
2023-06-28T09:35:20.670Z,17.44
2023-06-28T09:37:51.232Z,17.47
2023-06-28T09:40:18.572Z,17.68
2023-06-28T09:42:47.418Z,17.98
2023-06-28T09:45:38.096Z,18.30
2023-06-28T09:48:05.384Z,18.43
2023-06-28T09:50:41.903Z,18.28
2023-06-28T09:53:14.548Z,18.17
2023-06-28T09:55:43.348Z,17.93
2023-06-28T09:58:15.403Z,17.55
2023-06-28T10:00:43.638Z,17.19
2023-06-28T10:03:12.367Z,16.58
2023-06-28T10:05:42.411Z,16.10
2023-06-28T10:08:14.557Z,15.82
2023-06-28T10:10:43.137Z,15.62
2023-06-28T10:13:12.895Z,15.48
2023-06-28T10:15:48.837Z,15.43
2023-06-28T10:18:16.584Z,15.41
2023-06-28T10:20:43.826Z,15.46
2023-06-28T10:23:13.763Z,15.53
2023-06-28T10:25:42.192Z,15.79
2023-06-28T10:28:09.982Z,16.13
2023-06-28T10:30:39.749Z,16.27
2023-06-28T10:33:07.307Z,16.20
2023-06-28T10:35:34.796Z,16.25
2023-06-28T10:38:01.615Z,16.60
2023-06-28T10:40:28.720Z,17.00
2023-06-28T10:42:55.438Z,17.32
2023-06-28T10:45:35.621Z,17.38
2023-06-28T10:48:03.478Z,17.56
2023-06-28T10:50:41.646Z,17.82
2023-06-28T10:53:20.279Z,18.07
2023-06-28T10:56:15.082Z,18.22
2023-06-28T10:58:42.926Z,18.06
2023-06-28T11:01:14.022Z,17.82
2023-06-28T11:03:44.981Z,17.73
2023-06-28T11:06:13.358Z,17.79
2023-06-28T11:08:43.782Z,17.85
2023-06-28T11:11:31.727Z,17.90
2023-06-28T11:13:58.301Z,17.99
2023-06-28T11:16:25.515Z,18.17
2023-06-28T11:18:53.311Z,18.44
2023-06-28T11:21:25.170Z,18.68
2023-06-28T11:23:56.777Z,18.89
2023-06-28T11:26:42.787Z,19.06
2023-06-28T11:29:17.480Z,19.02
2023-06-28T11:31:57.306Z,18.45
2023-06-28T11:34:25.856Z,17.84
2023-06-28T11:36:54.195Z,17.29
2023-06-28T11:39:22.862Z,16.87
2023-06-28T11:41:49.978Z,16.54
2023-06-28T11:44:16.746Z,16.28
2023-06-28T11:46:46.890Z,16.15
2023-06-28T11:49:17.117Z,16.04
2023-06-28T11:51:44.686Z,16.08
2023-06-28T11:54:12.669Z,16.08
2023-06-28T11:56:39.537Z,16.18
2023-06-28T11:59:16.453Z,16.28
2023-06-28T12:01:44.642Z,16.40
2023-06-28T12:04:22.499Z,16.50
2023-06-28T12:06:52.765Z,16.62
2023-06-28T12:09:22.225Z,16.76
2023-06-28T12:12:03.913Z,16.98
2023-06-28T12:14:49.461Z,17.29
2023-06-28T12:17:17.762Z,17.72
2023-06-28T12:19:44.606Z,18.06
2023-06-28T12:22:11.326Z,18.23
2023-06-28T12:24:38.515Z,18.49
2023-06-28T12:27:07.191Z,18.82
2023-06-28T12:29:36.088Z,19.04
2023-06-28T12:32:08.355Z,19.39
2023-06-28T12:34:38.134Z,19.72
2023-06-28T12:37:11.036Z,19.65
2023-06-28T12:39:40.334Z,19.32
2023-06-28T12:42:11.123Z,19.13
2023-06-28T12:44:51.999Z,19.31
2023-06-28T12:47:19.444Z,19.82
2023-06-28T12:49:47.504Z,20.25
2023-06-28T12:52:14.624Z,20.23
2023-06-28T12:54:41.778Z,19.99
2023-06-28T12:57:09.045Z,19.77
2023-06-28T12:59:36.705Z,19.57
2023-06-28T13:02:03.723Z,19.46
2023-06-28T13:04:35.336Z,19.61
2023-06-28T13:07:04.383Z,19.93
2023-06-28T13:09:31.629Z,20.16
2023-06-28T13:11:58.516Z,20.10
2023-06-28T13:14:25.131Z,19.91
2023-06-28T13:16:52.265Z,19.86
2023-06-28T13:19:19.408Z,20.04
2023-06-28T13:21:46.825Z,20.23
2023-06-28T13:24:13.489Z,20.38
2023-06-28T13:26:40.313Z,20.50
2023-06-28T13:29:06.926Z,20.38
2023-06-28T13:31:33.554Z,20.50
2023-06-28T13:34:00.246Z,20.28
2023-06-28T13:36:27.266Z,20.33
2023-06-28T13:38:54.608Z,20.34
2023-06-28T13:41:21.300Z,20.33
2023-06-28T13:43:47.934Z,20.24
2023-06-28T13:46:15.780Z,20.04
2023-06-28T13:48:42.397Z,20.02
2023-06-28T13:51:08.966Z,20.23
2023-06-28T13:53:35.571Z,20.48
2023-06-28T13:56:02.219Z,20.56
2023-06-28T13:58:28.985Z,20.42
2023-06-28T14:00:57.350Z,20.20
2023-06-28T14:03:24.881Z,19.90
2023-06-28T14:05:52.302Z,19.74
2023-06-28T14:08:19.191Z,19.46
2023-06-28T14:10:47.165Z,19.08
2023-06-28T14:13:15.334Z,18.66
2023-06-28T14:15:43.185Z,18.43
2023-06-28T14:18:11.269Z,17.97
2023-06-28T14:20:37.871Z,17.71
2023-06-28T14:23:04.501Z,17.43
2023-06-28T14:25:31.173Z,17.14
2023-06-28T14:27:58.719Z,16.94
2023-06-28T14:30:25.472Z,16.71
2023-06-28T14:32:53.052Z,16.49
2023-06-28T14:35:22.043Z,16.38
2023-06-28T14:37:50.222Z,16.29
2023-06-28T14:40:17.296Z,16.22
2023-06-28T14:42:43.911Z,16.20
2023-06-28T14:45:13.972Z,16.19
2023-06-28T14:47:42.580Z,16.21
2023-06-28T14:50:10.540Z,16.18
2023-06-28T14:52:38.326Z,16.15
2023-06-28T14:55:05.708Z,16.12
2023-06-28T14:57:32.409Z,16.08
2023-06-28T14:59:59.046Z,15.96
2023-06-28T15:02:25.696Z,15.82
2023-06-28T15:04:52.590Z,15.69
2023-06-28T15:07:19.468Z,15.63
2023-06-28T15:09:46.277Z,15.59
2023-06-28T15:12:13.302Z,15.50
2023-06-28T15:14:40.772Z,15.43
2023-06-28T15:17:07.997Z,15.42
2023-06-28T15:19:34.835Z,15.38
2023-06-28T15:22:01.428Z,15.31
2023-06-28T15:24:28.109Z,15.30
2023-06-28T15:26:57.319Z,15.28
2023-06-28T15:29:26.215Z,15.30
2023-06-28T15:31:53.612Z,15.31
2023-06-28T15:34:20.300Z,15.28
2023-06-28T15:36:47.011Z,15.24
2023-06-28T15:39:13.691Z,15.23
2023-06-28T15:41:41.690Z,15.19
2023-06-28T15:44:09.424Z,15.14
2023-06-28T15:46:36.092Z,15.07
2023-06-28T15:49:04.124Z,14.99
2023-06-28T15:51:32.079Z,14.89
2023-06-28T15:53:58.685Z,14.77
2023-06-28T15:56:25.316Z,14.66
2023-06-28T15:58:52.053Z,14.61
2023-06-28T16:01:19.629Z,14.50
2023-06-28T16:03:46.865Z,14.40
2023-06-28T16:06:13.723Z,14.22
2023-06-28T16:08:40.676Z,14.06
2023-06-28T16:11:07.325Z,13.97
2023-06-28T16:13:34.042Z,13.88
2023-06-28T16:16:03.436Z,13.77
2023-06-28T16:18:30.566Z,13.72
2023-06-28T16:20:57.921Z,13.71
2023-06-28T16:23:25.311Z,13.67
2023-06-28T16:25:51.983Z,13.64
2023-06-28T16:28:18.777Z,13.64
2023-06-28T16:30:45.786Z,13.63
2023-06-28T16:33:12.564Z,13.61
2023-06-28T16:35:45.129Z,13.62
2023-06-28T16:38:14.385Z,13.65
2023-06-28T16:40:41.259Z,13.65
2023-06-28T16:43:08.820Z,13.66
2023-06-28T16:45:35.577Z,13.66
2023-06-28T16:48:02.553Z,13.68
2023-06-28T16:50:29.427Z,13.63
2023-06-28T16:52:56.144Z,13.55
2023-06-28T16:55:22.792Z,13.46
2023-06-28T16:57:50.930Z,13.46
2023-06-28T17:00:18.013Z,13.42
2023-06-28T17:02:48.848Z,13.38
2023-06-28T17:05:16.087Z,13.30
2023-06-28T17:07:42.923Z,13.26
2023-06-28T17:10:12.475Z,13.25
2023-06-28T17:12:43.608Z,13.21
2023-06-28T17:15:11.890Z,13.15
2023-06-28T17:17:39.370Z,13.07
2023-06-28T17:20:07.357Z,13.00
2023-06-28T17:22:35.783Z,12.95
2023-06-28T17:25:05.312Z,12.97
2023-06-28T17:27:33.051Z,12.95
2023-06-28T17:29:59.805Z,12.93
2023-06-28T17:32:27.121Z,12.93
2023-06-28T17:34:54.008Z,12.94
2023-06-28T17:37:20.559Z,12.94
2023-06-28T17:39:47.134Z,12.99
2023-06-28T17:42:13.782Z,13.00
2023-06-28T17:44:40.399Z,12.98
2023-06-28T17:47:07.135Z,12.99
2023-06-28T17:49:33.756Z,13.02
2023-06-28T17:52:00.326Z,13.04
2023-06-28T17:54:28.737Z,13.06
2023-06-28T17:56:55.320Z,13.07
2023-06-28T17:59:21.916Z,13.06
2023-06-28T18:01:48.563Z,13.02
2023-06-28T18:04:15.498Z,12.98
2023-06-28T18:06:42.479Z,12.96
2023-06-28T18:09:09.106Z,12.96
2023-06-28T18:11:35.818Z,12.97
2023-06-28T18:14:02.669Z,12.99
2023-06-28T18:16:29.314Z,13.00
2023-06-28T18:18:56.025Z,12.99
2023-06-28T18:21:22.575Z,13.00
2023-06-28T18:23:49.181Z,13.02
2023-06-28T18:26:16.885Z,13.03
2023-06-28T18:28:43.807Z,13.07
2023-06-28T18:31:10.447Z,13.11
2023-06-28T18:33:37.087Z,13.13
2023-06-28T18:36:03.865Z,13.13
2023-06-28T18:38:30.626Z,13.12
2023-06-28T18:40:58.221Z,13.12
2023-06-28T18:43:24.911Z,13.13
2023-06-28T18:45:51.632Z,13.12
2023-06-28T18:48:18.307Z,13.10
2023-06-28T18:50:53.579Z,13.09
2023-06-28T18:53:20.839Z,13.06
2023-06-28T18:55:48.279Z,13.02
2023-06-28T18:58:33.770Z,12.99
2023-06-28T19:01:00.690Z,12.96
2023-06-28T19:03:27.888Z,12.94
2023-06-28T19:05:55.245Z,12.92
2023-06-28T19:08:22.669Z,12.88
2023-06-28T19:10:50.249Z,12.88
2023-06-28T19:13:20.877Z,12.86
2023-06-28T19:15:48.065Z,12.85
2023-06-28T19:18:15.190Z,12.86
2023-06-28T19:20:42.215Z,12.85
2023-06-28T19:23:09.650Z,12.87
2023-06-28T19:25:36.623Z,12.88
2023-06-28T19:28:03.661Z,12.83
2023-06-28T19:30:30.260Z,12.78
2023-06-28T19:32:57.080Z,12.80
2023-06-28T19:35:24.514Z,12.77
2023-06-28T19:37:52.169Z,12.80
2023-06-28T19:40:19.029Z,12.81
2023-06-28T19:42:45.708Z,12.82
2023-06-28T19:45:12.430Z,12.82
2023-06-28T19:47:39.287Z,12.83
2023-06-28T19:50:07.253Z,12.87
2023-06-28T19:52:34.507Z,12.85
2023-06-28T19:55:01.402Z,12.86
2023-06-28T19:57:28.085Z,12.86
2023-06-28T19:59:54.655Z,12.87
2023-06-28T20:02:23.500Z,12.88
2023-06-28T20:04:50.410Z,12.90
2023-06-28T20:07:17.557Z,12.92
2023-06-28T20:09:44.424Z,12.92
2023-06-28T20:12:11.819Z,12.93
2023-06-28T20:14:38.877Z,12.96
2023-06-28T20:17:05.635Z,12.98
2023-06-28T20:19:32.210Z,12.97
2023-06-28T20:21:58.811Z,12.99
2023-06-28T20:24:25.441Z,13.01
2023-06-28T20:26:52.295Z,13.04
2023-06-28T20:29:18.904Z,13.02
2023-06-28T20:31:45.640Z,13.05
2023-06-28T20:34:12.428Z,13.06
2023-06-28T20:36:39.004Z,13.09
2023-06-28T20:39:05.644Z,13.12
2023-06-28T20:41:32.225Z,13.15
2023-06-28T20:43:58.868Z,13.16
2023-06-28T20:46:25.508Z,13.15
2023-06-28T20:48:52.239Z,13.17
2023-06-28T20:51:20.593Z,13.18
2023-06-28T20:53:47.313Z,13.18
2023-06-28T20:56:13.973Z,13.17
2023-06-28T20:58:41.932Z,13.15
2023-06-28T21:01:09.329Z,13.15
2023-06-28T21:03:36.267Z,13.14
2023-06-28T21:06:03.024Z,13.16
2023-06-28T21:08:29.706Z,13.14
2023-06-28T21:10:56.353Z,13.14
2023-06-28T21:13:22.999Z,13.14
2023-06-28T21:15:50.005Z,13.14
2023-06-28T21:18:17.111Z,13.14
2023-06-28T21:20:43.868Z,13.14
2023-06-28T21:23:10.506Z,13.17
2023-06-28T21:25:41.151Z,13.20
2023-06-28T21:28:08.322Z,13.18
2023-06-28T21:30:37.319Z,13.19
2023-06-28T21:33:04.591Z,13.20
2023-06-28T21:35:31.819Z,13.22
2023-06-28T21:37:58.456Z,13.23
2023-06-28T21:40:25.093Z,13.24
2023-06-28T21:42:51.757Z,13.26
2023-06-28T21:45:18.400Z,13.26
2023-06-28T21:47:45.010Z,13.27
2023-06-28T21:50:11.661Z,13.28
2023-06-28T21:52:38.291Z,13.30
2023-06-28T21:55:05.432Z,13.31
2023-06-28T21:57:32.086Z,13.33
2023-06-28T21:59:59.930Z,13.35
2023-06-28T22:02:26.760Z,13.35
2023-06-28T22:04:53.648Z,13.34
2023-06-28T22:07:21.825Z,13.36
2023-06-28T22:09:54.028Z,13.38
2023-06-28T22:12:21.371Z,13.40
2023-06-28T22:14:48.114Z,13.43
2023-06-28T22:17:15.089Z,13.46
2023-06-28T22:19:42.013Z,13.47
2023-06-28T22:22:09.981Z,13.48
2023-06-28T22:24:38.056Z,13.51
2023-06-28T22:27:04.824Z,13.52
2023-06-28T22:29:31.532Z,13.53
2023-06-28T22:31:58.262Z,13.55
2023-06-28T22:34:24.999Z,13.58
2023-06-28T22:36:51.776Z,13.62
2023-06-28T22:39:19.105Z,13.59
2023-06-28T22:41:45.850Z,13.58
2023-06-28T22:44:13.020Z,13.59
2023-06-28T22:46:39.761Z,13.60
2023-06-28T22:49:06.452Z,13.62
2023-06-28T22:51:39.658Z,13.62
2023-06-28T22:54:07.664Z,13.63
2023-06-28T22:56:36.215Z,13.63
2023-06-28T22:59:04.491Z,13.66
2023-06-28T23:01:31.534Z,13.67
2023-06-28T23:03:58.770Z,13.68
2023-06-28T23:06:28.460Z,13.68
2023-06-28T23:08:55.957Z,13.67
2023-06-28T23:11:27.709Z,13.68
2023-06-28T23:13:55.036Z,13.66
2023-06-28T23:16:23.632Z,13.66
2023-06-28T23:18:53.034Z,13.65
2023-06-28T23:21:22.241Z,13.67
2023-06-28T23:23:49.206Z,13.72
2023-06-28T23:26:18.429Z,13.73
2023-06-28T23:28:45.624Z,13.75
2023-06-28T23:31:14.036Z,13.75
2023-06-28T23:33:42.498Z,13.76
2023-06-28T23:36:10.455Z,13.76
2023-06-28T23:38:39.570Z,13.78
2023-06-28T23:41:07.518Z,13.77
2023-06-28T23:43:35.071Z,13.79
2023-06-28T23:46:03.893Z,13.80
2023-06-28T23:48:35.331Z,13.80
2023-06-28T23:51:06.877Z,13.81
2023-06-28T23:53:42.978Z,13.83
2023-06-28T23:56:11.206Z,13.84
2023-06-28T23:58:40.398Z,13.85
